Station Historical Data
Daily Summary for July 22, 2012 Units:  English    Metric   Both
« Previous Day
Next Day »
Daily Weekly Monthly Yearly Custom
  High: Low: Average:
Temperature: 85.3 °F 71.3 °F 77 °F
Dew Point: 76.3 °F 68.9 °F 73.2 °F
Humidity: 92% 71% 88%
Wind Speed: 9.0mph 0.0mph 3.1mph
Wind Gust: 13.0mph - -
Wind- - SSE
Pressure: 30.11 in 29.99 in -
Precipitation: 0.10 in    
Historical Graphs
 
 
Tabular Data for July 22, 2012
Time Temperature Dew Point Pressure Wind Wind Speed Wind Gust Humidity Rainfall Rate (Hourly) Conditions
00:00 75.3 °F 72.8 °F 29.99 in East 1.0 mph 2.0 mph 92% 0.00 in
00:05 75.4 °F 72.9 °F 29.99 in Calm   1.0 mph 92% 0.00 in
00:10 75.3 °F 72.8 °F 29.99 in SE 1.0 mph 2.0 mph 92% 0.00 in
00:15 75.3 °F 72.8 °F 29.99 in SE 1.0 mph 1.0 mph 92% 0.00 in
00:20 75.2 °F 72.7 °F 29.99 in Calm   1.0 mph 92% 0.00 in
00:25 75.2 °F 72.7 °F 30.00 in ESE 1.0 mph 2.0 mph 92% 0.00 in
00:30 75.1 °F 72.6 °F 30.00 in Calm   2.0 mph 92% 0.00 in
00:35 75.1 °F 72.6 °F 30.00 in SE 3.0 mph 4.0 mph 92% 0.00 in
00:40 75.3 °F 72.8 °F 29.99 in ESE 4.0 mph 4.0 mph 92% 0.00 in
00:45 75.4 °F 72.9 °F 29.99 in SE 2.0 mph 4.0 mph 92% 0.00 in
00:50 75.5 °F 73.0 °F 29.99 in SE 3.0 mph 4.0 mph 92% 0.00 in
00:55 75.7 °F 73.2 °F 29.99 in ESE 4.0 mph 4.0 mph 92% 0.00 in
01:00 75.8 °F 73.3 °F 29.99 in SE 2.0 mph 5.0 mph 92% 0.00 in
01:05 75.8 °F 73.3 °F 29.99 in SE 1.0 mph 2.0 mph 92% 0.00 in
01:10 75.8 °F 73.3 °F 29.99 in SE 1.0 mph 2.0 mph 92% 0.00 in
01:16 75.7 °F 73.2 °F 29.99 in SE 1.0 mph 3.0 mph 92% 0.00 in
01:21 75.6 °F 73.1 °F 30.00 in SE 2.0 mph 4.0 mph 92% 0.00 in
01:26 75.5 °F 73.0 °F 30.00 in ESE 3.0 mph 3.0 mph 92% 0.00 in
01:31 75.5 °F 73.0 °F 30.00 in SE 2.0 mph 3.0 mph 92% 0.00 in
01:36 75.4 °F 72.9 °F 30.00 in SE 2.0 mph 4.0 mph 92% 0.00 in
01:41 75.3 °F 72.8 °F 30.00 in SE 2.0 mph 3.0 mph 92% 0.00 in
01:46 75.2 °F 72.7 °F 30.00 in ESE 3.0 mph 3.0 mph 92% 0.00 in
01:51 75.1 °F 72.6 °F 30.00 in SE 2.0 mph 3.0 mph 92% 0.00 in
01:56 75.0 °F 72.5 °F 30.00 in SE 3.0 mph 3.0 mph 92% 0.00 in
02:01 75.0 °F 72.5 °F 30.00 in SE 1.0 mph 2.0 mph 92% 0.00 in
02:06 75.1 °F 72.3 °F 30.00 in SE 3.0 mph 3.0 mph 91% 0.00 in
02:11 75.2 °F 72.4 °F 30.00 in SE 6.0 mph 6.0 mph 91% 0.00 in
02:16 75.3 °F 72.5 °F 30.00 in SE 4.0 mph 5.0 mph 91% 0.00 in
02:21 75.3 °F 72.8 °F 30.00 in SE 3.0 mph 6.0 mph 92% 0.00 in
02:26 75.3 °F 72.8 °F 30.00 in SE 3.0 mph 5.0 mph 92% 0.00 in
02:31 75.3 °F 72.8 °F 30.00 in SE 3.0 mph 4.0 mph 92% 0.00 in
02:36 75.3 °F 72.8 °F 30.00 in SE 2.0 mph 3.0 mph 92% 0.00 in
02:41 75.1 °F 72.6 °F 30.00 in ESE 4.0 mph 5.0 mph 92% 0.00 in
02:47 75.1 °F 72.6 °F 30.00 in SE 5.0 mph 5.0 mph 92% 0.00 in
02:52 75.0 °F 72.5 °F 30.00 in SE 4.0 mph 6.0 mph 92% 0.00 in
02:57 75.0 °F 72.5 °F 30.00 in SSE 4.0 mph 4.0 mph 92% 0.00 in
03:02 75.0 °F 72.5 °F 30.01 in SE 4.0 mph 5.0 mph 92% 0.00 in
03:07 75.0 °F 72.5 °F 30.01 in SE 3.0 mph 5.0 mph 92% 0.00 in
03:12 74.9 °F 72.4 °F 30.00 in South 2.0 mph 3.0 mph 92% 0.00 in
03:17 74.8 °F 72.3 °F 30.00 in SSE 2.0 mph 3.0 mph 92% 0.00 in
03:22 74.6 °F 72.1 °F 30.00 in SE 2.0 mph 3.0 mph 92% 0.00 in
03:27 74.5 °F 72.0 °F 30.00 in SE 2.0 mph 3.0 mph 92% 0.00 in
03:32 74.3 °F 71.8 °F 30.01 in SE 3.0 mph 4.0 mph 92% 0.00 in
03:37 74.3 °F 71.8 °F 30.01 in SSE 3.0 mph 3.0 mph 92% 0.00 in
03:42 74.2 °F 71.7 °F 30.01 in SE 3.0 mph 5.0 mph 92% 0.00 in
03:47 74.1 °F 71.6 °F 30.01 in SE 5.0 mph 5.0 mph 92% 0.00 in
03:52 74.1 °F 71.6 °F 30.01 in SE 3.0 mph 5.0 mph 92% 0.00 in
03:57 74.1 °F 71.6 °F 30.01 in SE 5.0 mph 5.0 mph 92% 0.00 in
04:02 74.0 °F 71.5 °F 30.01 in SSE 3.0 mph 4.0 mph 92% 0.00 in
04:07 74.0 °F 71.5 °F 30.01 in SSE 3.0 mph 4.0 mph 92% 0.00 in
04:12 73.9 °F 71.4 °F 30.01 in SE 2.0 mph 3.0 mph 92% 0.00 in
04:17 73.9 °F 71.4 °F 30.01 in SE 2.0 mph 4.0 mph 92% 0.00 in
04:22 73.8 °F 71.3 °F 30.01 in SE 2.0 mph 2.0 mph 92% 0.00 in
04:27 73.8 °F 71.3 °F 30.01 in SE 2.0 mph 3.0 mph 92% 0.00 in
04:32 73.7 °F 71.2 °F 30.02 in SE 2.0 mph 3.0 mph 92% 0.00 in
04:37 73.6 °F 71.1 °F 30.01 in SE 3.0 mph 3.0 mph 92% 0.00 in
04:43 73.6 °F 71.1 °F 30.01 in SE 2.0 mph 3.0 mph 92% 0.00 in
04:48 73.6 °F 71.1 °F 30.01 in SE 3.0 mph 3.0 mph 92% 0.00 in
04:53 73.5 °F 71.0 °F 30.01 in SE 3.0 mph 3.0 mph 92% 0.00 in
04:58 73.4 °F 70.9 °F 30.01 in ESE 2.0 mph 2.0 mph 92% 0.00 in
05:03 73.3 °F 70.8 °F 30.01 in SE 1.0 mph 2.0 mph 92% 0.00 in
05:08 73.2 °F 70.7 °F 30.01 in SE 2.0 mph 2.0 mph 92% 0.00 in
05:13 73.1 °F 70.6 °F 30.01 in SE 2.0 mph 3.0 mph 92% 0.00 in
05:18 73.0 °F 70.5 °F 30.01 in ESE 2.0 mph 3.0 mph 92% 0.00 in
05:23 73.0 °F 70.5 °F 30.01 in ESE 3.0 mph 3.0 mph 92% 0.00 in
05:28 72.9 °F 70.4 °F 30.01 in ESE 2.0 mph 3.0 mph 92% 0.00 in
05:33 72.8 °F 70.3 °F 30.02 in ESE 1.0 mph 2.0 mph 92% 0.00 in
05:38 72.6 °F 70.2 °F 30.02 in ESE 1.0 mph 2.0 mph 92% 0.00 in
05:43 72.5 °F 70.1 °F 30.02 in ESE 2.0 mph 2.0 mph 92% 0.00 in
05:48 72.4 °F 69.9 °F 30.02 in ESE 2.0 mph 2.0 mph 92% 0.00 in
05:53 72.3 °F 69.8 °F 30.02 in ESE 2.0 mph 2.0 mph 92% 0.00 in
05:58 72.3 °F 69.8 °F 30.03 in ESE 2.0 mph 2.0 mph 92% 0.00 in
06:03 72.1 °F 69.7 °F 30.03 in ESE 2.0 mph 3.0 mph 92% 0.00 in
06:08 72.0 °F 69.6 °F 30.03 in East 1.0 mph 2.0 mph 92% 0.00 in
06:13 71.9 °F 69.4 °F 30.03 in East 2.0 mph 2.0 mph 92% 0.00 in
06:18 71.8 °F 69.3 °F 30.03 in ESE 2.0 mph 3.0 mph 92% 0.00 in
06:23 71.6 °F 69.2 °F 30.03 in ESE 2.0 mph 2.0 mph 92% 0.00 in
06:28 71.6 °F 69.2 °F 30.03 in ESE 2.0 mph 2.0 mph 92% 0.00 in
06:33 71.5 °F 69.1 °F 30.03 in ESE 2.0 mph 3.0 mph 92% 0.00 in
06:38 71.4 °F 69.0 °F 30.03 in ESE 2.0 mph 3.0 mph 92% 0.00 in
06:43 71.3 °F 68.9 °F 30.04 in ESE 2.0 mph 2.0 mph 92% 0.00 in
06:48 71.3 °F 68.9 °F 30.04 in SE 2.0 mph 3.0 mph 92% 0.00 in
06:53 71.3 °F 68.9 °F 30.05 in SE 2.0 mph 4.0 mph 92% 0.00 in
06:58 71.4 °F 69.0 °F 30.05 in SE 2.0 mph 3.0 mph 92% 0.00 in
07:03 71.4 °F 69.0 °F 30.05 in SE 1.0 mph 3.0 mph 92% 0.00 in
07:08 71.4 °F 69.0 °F 30.05 in ESE 2.0 mph 3.0 mph 92% 0.00 in
07:13 71.3 °F 68.9 °F 30.05 in ESE 1.0 mph 2.0 mph 92% 0.00 in
07:18 71.3 °F 68.9 °F 30.05 in SE 2.0 mph 3.0 mph 92% 0.00 in
07:23 71.4 °F 69.0 °F 30.05 in ESE 2.0 mph 3.0 mph 92% 0.00 in
07:28 71.4 °F 69.0 °F 30.05 in SE 2.0 mph 4.0 mph 92% 0.00 in
07:33 71.7 °F 69.3 °F 30.05 in SE 3.0 mph 4.0 mph 92% 0.00 in
07:38 72.1 °F 69.7 °F 30.05 in ESE 3.0 mph 4.0 mph 92% 0.00 in
07:43 72.4 °F 69.9 °F 30.05 in SE 1.0 mph 4.0 mph 92% 0.00 in
07:48 72.8 °F 70.3 °F 30.05 in ESE 3.0 mph 4.0 mph 92% 0.00 in
07:53 73.1 °F 70.6 °F 30.06 in ESE 2.0 mph 5.0 mph 92% 0.00 in
07:58 73.3 °F 70.8 °F 30.06 in SE 4.0 mph 4.0 mph 92% 0.00 in
08:03 73.6 °F 71.1 °F 30.06 in East 5.0 mph 6.0 mph 92% 0.00 in
08:08 73.5 °F 71.0 °F 30.06 in East 4.0 mph 6.0 mph 92% 0.00 in
08:13 73.4 °F 70.9 °F 30.06 in SE 5.0 mph 5.0 mph 92% 0.00 in
08:18 73.4 °F 70.9 °F 30.06 in ESE 5.0 mph 6.0 mph 92% 0.00 in
08:23 73.6 °F 71.1 °F 30.06 in ESE 5.0 mph 6.0 mph 92% 0.00 in
08:28 74.0 °F 71.5 °F 30.06 in SE 4.0 mph 6.0 mph 92% 0.00 in
08:33 74.3 °F 71.8 °F 30.06 in SE 5.0 mph 8.0 mph 92% 0.00 in
08:38 74.5 °F 72.0 °F 30.06 in SE 6.0 mph 8.0 mph 92% 0.00 in
08:43 74.7 °F 72.2 °F 30.06 in ESE 8.0 mph 10.0 mph 92% 0.00 in
08:48 75.0 °F 72.5 °F 30.06 in ESE 3.0 mph 9.0 mph 92% 0.00 in
08:53 75.4 °F 72.9 °F 30.06 in SE 5.0 mph 6.0 mph 92% 0.00 in
08:58 75.7 °F 72.9 °F 30.07 in ESE 7.0 mph 8.0 mph 91% 0.00 in
09:03 75.8 °F 73.0 °F 30.07 in SE 3.0 mph 6.0 mph 91% 0.00 in
09:09 76.0 °F 72.9 °F 30.07 in SSW 4.0 mph 7.0 mph 90% 0.00 in
09:14 75.8 °F 72.3 °F 30.07 in SE 6.0 mph 8.0 mph 89% 0.00 in
09:19 75.6 °F 72.5 °F 30.07 in SE 5.0 mph 10.0 mph 90% 0.00 in
09:24 75.4 °F 72.3 °F 30.07 in SE 6.0 mph 8.0 mph 90% 0.00 in
09:29 75.4 °F 72.6 °F 30.07 in SE 8.0 mph 8.0 mph 91% 0.00 in
09:34 75.5 °F 72.7 °F 30.07 in SE 4.0 mph 8.0 mph 91% 0.00 in
09:39 75.6 °F 72.8 °F 30.07 in ESE 5.0 mph 7.0 mph 91% 0.00 in
09:44 75.7 °F 72.9 °F 30.07 in ESE 6.0 mph 10.0 mph 91% 0.00 in
09:49 75.5 °F 72.4 °F 30.07 in SSE 7.0 mph 8.0 mph 90% 0.00 in
09:54 75.5 °F 72.4 °F 30.07 in SE 5.0 mph 9.0 mph 90% 0.00 in
09:59 75.6 °F 72.5 °F 30.07 in SE 4.0 mph 8.0 mph 90% 0.00 in
10:04 75.7 °F 72.6 °F 30.07 in SSE 6.0 mph 8.0 mph 90% 0.00 in
10:09 75.8 °F 72.7 °F 30.07 in SE 3.0 mph 8.0 mph 90% 0.00 in
10:14 75.9 °F 72.8 °F 30.08 in SE 6.0 mph 9.0 mph 90% 0.00 in
10:19 75.8 °F 72.7 °F 30.07 in SE 4.0 mph 6.0 mph 90% 0.00 in
10:24 76.2 °F 73.1 °F 30.07 in SW 7.0 mph 8.0 mph 90% 0.00 in
10:29 76.5 °F 73.0 °F 30.08 in SSE 2.0 mph 7.0 mph 89% 0.00 in
10:34 76.5 °F 73.0 °F 30.08 in SE 4.0 mph 8.0 mph 89% 0.00 in
10:39 76.2 °F 72.7 °F 30.08 in SE 4.0 mph 7.0 mph 89% 0.00 in
10:44 76.1 °F 72.6 °F 30.08 in SSE 4.0 mph 5.0 mph 89% 0.00 in
10:49 76.1 °F 73.0 °F 30.08 in SSE 4.0 mph 5.0 mph 90% 0.00 in
10:54 76.5 °F 73.0 °F 30.09 in SE 2.0 mph 7.0 mph 89% 0.00 in
10:59 76.7 °F 73.2 °F 30.09 in SE 6.0 mph 9.0 mph 89% 0.00 in
11:04 76.8 °F 73.3 °F 30.09 in South 6.0 mph 8.0 mph 89% 0.00 in
11:09 77.0 °F 73.5 °F 30.09 in SE 4.0 mph 6.0 mph 89% 0.00 in
11:14 77.1 °F 73.6 °F 30.09 in SSE 8.0 mph 8.0 mph 89% 0.00 in
11:19 77.1 °F 73.6 °F 30.09 in SSE 6.0 mph 8.0 mph 89% 0.00 in
11:24 77.2 °F 73.4 °F 30.09 in SSE 8.0 mph 10.0 mph 88% 0.00 in
11:29 77.5 °F 73.7 °F 30.09 in SW 2.0 mph 7.0 mph 88% 0.00 in
11:34 77.6 °F 73.8 °F 30.09 in SSE 3.0 mph 6.0 mph 88% 0.00 in
11:39 77.5 °F 73.7 °F 30.09 in SSE 3.0 mph 7.0 mph 88% 0.00 in
11:44 77.3 °F 73.5 °F 30.09 in SSE 6.0 mph 7.0 mph 88% 0.00 in
11:49 77.0 °F 73.2 °F 30.09 in SSE 5.0 mph 8.0 mph 88% 0.00 in
11:54 77.1 °F 73.3 °F 30.09 in SSE 5.0 mph 6.0 mph 88% 0.00 in
11:59 77.2 °F 74.0 °F 30.09 in SE 6.0 mph 7.0 mph 90% 0.00 in
12:04 77.5 °F 73.7 °F 30.09 in SSE 7.0 mph 7.0 mph 88% 0.00 in
12:09 77.7 °F 73.2 °F 30.10 in SE 2.0 mph 7.0 mph 86% 0.00 in
12:14 78.1 °F 73.9 °F 30.09 in SE 5.0 mph 7.0 mph 87% 0.00 in
12:19 78.2 °F 74.0 °F 30.09 in SE 5.0 mph 6.0 mph 87% 0.00 in
12:24 78.3 °F 74.1 °F 30.09 in SE 5.0 mph 7.0 mph 87% 0.00 in
12:29 78.2 °F 73.7 °F 30.09 in SE 5.0 mph 8.0 mph 86% 0.00 in
12:34 78.4 °F 73.9 °F 30.09 in SSE 3.0 mph 8.0 mph 86% 0.00 in
12:39 79.0 °F 74.5 °F 30.09 in SE 8.0 mph 10.0 mph 86% 0.00 in
12:45 79.3 °F 74.4 °F 30.09 in SE 6.0 mph 8.0 mph 85% 0.00 in
12:50 79.2 °F 74.3 °F 30.09 in SE 6.0 mph 8.0 mph 85% 0.00 in
12:55 79.1 °F 73.8 °F 30.09 in SSE 5.0 mph 8.0 mph 84% 0.00 in
13:00 79.2 °F 74.3 °F 30.09 in SE 3.0 mph 9.0 mph 85% 0.00 in
13:05 79.8 °F 73.8 °F 30.09 in SE 5.0 mph 7.0 mph 82% 0.00 in
13:10 80.0 °F 73.7 °F 30.09 in South 4.0 mph 6.0 mph 81% 0.00 in
13:15 79.0 °F 73.8 °F 30.09 in SSE 6.0 mph 13.0 mph 84% 0.00 in
13:20 77.5 °F 73.3 °F 30.09 in SSE 8.0 mph 9.0 mph 87% 0.00 in
13:25 77.2 °F 73.7 °F 30.09 in SSE 7.0 mph 9.0 mph 89% 0.00 in
13:30 77.5 °F 74.0 °F 30.09 in SE 9.0 mph 10.0 mph 89% 0.00 in
13:35 77.8 °F 74.0 °F 30.09 in WSW 5.0 mph 7.0 mph 88% 0.00 in
13:40 77.2 °F 73.4 °F 30.09 in SSW 4.0 mph 8.0 mph 88% 0.00 in
13:45 76.2 °F 72.7 °F 30.09 in SW 3.0 mph 9.0 mph 89% 0.57 in
13:50 75.5 °F 72.7 °F 30.09 in SW 3.0 mph 5.0 mph 91% 0.19 in
13:55 75.1 °F 72.6 °F 30.09 in WSW 4.0 mph 6.0 mph 92% 0.08 in
14:00 75.2 °F 72.7 °F 30.09 in WSW 2.0 mph 6.0 mph 92% 0.05 in
14:05 75.5 °F 73.0 °F 30.09 in WSW 3.0 mph 6.0 mph 92% 0.00 in
14:10 76.1 °F 73.6 °F 30.08 in SW 4.0 mph 4.0 mph 92% 0.00 in
14:15 76.3 °F 73.8 °F 30.08 in South 3.0 mph 5.0 mph 92% 0.00 in
14:20 76.8 °F 74.0 °F 30.08 in SSW 3.0 mph 5.0 mph 91% 0.00 in
14:25 77.5 °F 74.3 °F 30.08 in SSW 3.0 mph 4.0 mph 90% 0.00 in
14:30 78.0 °F 74.8 °F 30.08 in SW 4.0 mph 5.0 mph 90% 0.00 in
14:35 78.4 °F 74.6 °F 30.08 in SSW 6.0 mph 6.0 mph 88% 0.00 in
14:40 78.6 °F 74.8 °F 30.08 in SW 2.0 mph 6.0 mph 88% 0.00 in
14:45 78.8 °F 74.9 °F 30.08 in WSW 6.0 mph 6.0 mph 88% 0.00 in
14:50 78.9 °F 74.7 °F 30.08 in SSW 2.0 mph 4.0 mph 87% 0.00 in
14:55 79.5 °F 74.9 °F 30.08 in SSE 4.0 mph 5.0 mph 86% 0.00 in
15:00 79.9 °F 75.0 °F 30.08 in SSW 2.0 mph 5.0 mph 85% 0.00 in
15:05 80.4 °F 75.1 °F 30.08 in SSE 3.0 mph 7.0 mph 84% 0.00 in
15:10 80.8 °F 75.2 °F 30.07 in West 3.0 mph 8.0 mph 83% 0.00 in
15:15 81.2 °F 75.2 °F 30.08 in SE 3.0 mph 8.0 mph 82% 0.00 in
15:20 81.4 °F 75.4 °F 30.07 in SSE 7.0 mph 7.0 mph 82% 0.00 in
15:25 81.8 °F 75.4 °F 30.07 in SW 4.0 mph 6.0 mph 81% 0.00 in
15:30 82.0 °F 75.2 °F 30.07 in WSW 3.0 mph 9.0 mph 80% 0.00 in
15:35 82.3 °F 74.8 °F 30.07 in SW 7.0 mph 8.0 mph 78% 0.00 in
15:40 82.5 °F 74.9 °F 30.07 in South 4.0 mph 7.0 mph 78% 0.00 in
15:45 82.9 °F 75.7 °F 30.07 in SW 5.0 mph 8.0 mph 79% 0.00 in
15:50 82.8 °F 74.9 °F 30.06 in WSW 7.0 mph 9.0 mph 77% 0.00 in
15:55 83.1 °F 76.3 °F 30.06 in SE 2.0 mph 5.0 mph 80% 0.00 in
16:00 84.0 °F 76.0 °F 30.06 in WSW 4.0 mph 5.0 mph 77% 0.00 in
16:05 83.7 °F 74.9 °F 30.06 in SSW 4.0 mph 7.0 mph 75% 0.00 in
16:10 83.5 °F 74.8 °F 30.06 in South 4.0 mph 6.0 mph 75% 0.00 in
16:16 83.9 °F 75.1 °F 30.05 in SW 3.0 mph 6.0 mph 75% 0.00 in
16:21 84.1 °F 74.5 °F 30.05 in South 3.0 mph 5.0 mph 73% 0.00 in
16:26 84.6 °F 75.8 °F 30.05 in South 4.0 mph 7.0 mph 75% 0.00 in
16:31 84.9 °F 76.1 °F 30.05 in SSW 2.0 mph 4.0 mph 75% 0.00 in
16:36 85.3 °F 75.7 °F 30.05 in West 1.0 mph 4.0 mph 73% 0.00 in
16:41 85.1 °F 75.5 °F 30.05 in West 3.0 mph 6.0 mph 73% 0.00 in
16:46 84.6 °F 75.4 °F 30.05 in WSW 9.0 mph 9.0 mph 74% 0.00 in
16:51 84.5 °F 74.1 °F 30.05 in SSE 2.0 mph 6.0 mph 71% 0.00 in
16:56 84.6 °F 75.0 °F 30.06 in South 3.0 mph 5.0 mph 73% 0.00 in
17:01 84.5 °F 74.1 °F 30.05 in WSW 1.0 mph 3.0 mph 71% 0.00 in
17:06 84.2 °F 74.6 °F 30.05 in SSE 3.0 mph 5.0 mph 73% 0.00 in
17:11 83.6 °F 75.2 °F 30.05 in SE 5.0 mph 7.0 mph 76% 0.00 in
17:16 82.9 °F 75.3 °F 30.05 in SSW 3.0 mph 5.0 mph 78% 0.00 in
17:21 82.6 °F 75.1 °F 30.06 in South 3.0 mph 4.0 mph 78% 0.00 in
17:26 82.4 °F 75.6 °F 30.05 in SW 4.0 mph 4.0 mph 80% 0.00 in
17:31 82.0 °F 75.2 °F 30.05 in SW 4.0 mph 4.0 mph 80% 0.00 in
17:36 81.8 °F 75.0 °F 30.05 in SW 2.0 mph 5.0 mph 80% 0.00 in
17:41 81.7 °F 75.3 °F 30.05 in Calm   3.0 mph 81% 0.00 in
17:47 81.6 °F 74.8 °F 30.05 in WSW 3.0 mph 4.0 mph 80% 0.00 in
17:52 81.6 °F 74.8 °F 30.05 in WSW 1.0 mph 4.0 mph 80% 0.00 in
17:57 81.7 °F 74.6 °F 30.06 in WSW 2.0 mph 4.0 mph 79% 0.00 in
18:02 81.7 °F 75.3 °F 30.05 in WSW 3.0 mph 5.0 mph 81% 0.00 in
18:07 81.5 °F 75.8 °F 30.05 in WSW 2.0 mph 3.0 mph 83% 0.00 in
18:12 81.2 °F 75.9 °F 30.05 in WNW 1.0 mph 3.0 mph 84% 0.00 in
18:17 80.7 °F 75.4 °F 30.05 in WSW 4.0 mph 5.0 mph 84% 0.00 in
18:22 80.3 °F 75.0 °F 30.05 in West 2.0 mph 3.0 mph 84% 0.00 in
18:27 80.1 °F 74.8 °F 30.05 in West 1.0 mph 2.0 mph 84% 0.00 in
18:32 79.9 °F 74.6 °F 30.05 in West 3.0 mph 3.0 mph 84% 0.00 in
18:37 79.9 °F 74.6 °F 30.06 in West 1.0 mph 3.0 mph 84% 0.00 in
18:42 79.9 °F 74.3 °F 30.05 in West 2.0 mph 5.0 mph 83% 0.00 in
18:47 79.9 °F 75.0 °F 30.05 in Calm   3.0 mph 85% 0.00 in
18:52 80.1 °F 74.8 °F 30.06 in WSW 1.0 mph 1.0 mph 84% 0.00 in
18:57 80.1 °F 74.8 °F 30.05 in Calm   1.0 mph 84% 0.00 in
19:02 80.7 °F 75.1 °F 30.05 in SW 1.0 mph 1.0 mph 83% 0.00 in
19:07 81.5 °F 75.8 °F 30.06 in SE 4.0 mph 4.0 mph 83% 0.00 in
19:12 81.7 °F 75.3 °F 30.05 in SSE 4.0 mph 9.0 mph 81% 0.00 in
19:17 81.8 °F 76.1 °F 30.05 in SE 4.0 mph 7.0 mph 83% 0.00 in
19:22 81.8 °F 75.8 °F 30.05 in SE 4.0 mph 6.0 mph 82% 0.00 in
19:27 82.0 °F 76.0 °F 30.05 in SSE 5.0 mph 6.0 mph 82% 0.00 in
19:32 82.0 °F 76.3 °F 30.05 in SE 4.0 mph 5.0 mph 83% 0.00 in
19:37 81.7 °F 76.0 °F 30.05 in SSE 4.0 mph 5.0 mph 83% 0.00 in
19:42 81.6 °F 75.6 °F 30.05 in SE 2.0 mph 4.0 mph 82% 0.00 in
19:48 81.6 °F 75.9 °F 30.05 in SSE 1.0 mph 3.0 mph 83% 0.00 in
19:53 81.9 °F 75.5 °F 30.05 in SE 1.0 mph 3.0 mph 81% 0.00 in
19:58 82.3 °F 75.5 °F 30.05 in SE 3.0 mph 4.0 mph 80% 0.00 in
20:03 82.2 °F 75.8 °F 30.05 in South 1.0 mph 4.0 mph 81% 0.00 in
20:08 81.8 °F 75.0 °F 30.06 in SSW 3.0 mph 4.0 mph 80% 0.00 in
20:13 81.3 °F 74.9 °F 30.06 in Calm   3.0 mph 81% 0.00 in
20:18 81.0 °F 75.3 °F 30.06 in Calm   2.0 mph 83% 0.00 in
20:23 80.7 °F 75.4 °F 30.06 in SW 1.0 mph 1.0 mph 84% 0.00 in
20:28 80.8 °F 75.5 °F 30.06 in Calm   1.0 mph 84% 0.00 in
20:33 80.9 °F 76.0 °F 30.06 in Calm   1.0 mph 85% 0.00 in
20:38 80.7 °F 75.4 °F 30.06 in SE 1.0 mph 1.0 mph 84% 0.00 in
20:43 80.4 °F 75.5 °F 30.06 in SE 1.0 mph 2.0 mph 85% 0.00 in
20:48 80.1 °F 75.5 °F 30.06 in SSE 1.0 mph 2.0 mph 86% 0.00 in
20:53 79.7 °F 75.5 °F 30.06 in Calm   2.0 mph 87% 0.00 in
20:58 79.2 °F 75.0 °F 30.06 in SE 1.0 mph 2.0 mph 87% 0.00 in
21:03 78.9 °F 75.1 °F 30.06 in SE 1.0 mph 2.0 mph 88% 0.00 in
21:08 78.6 °F 75.1 °F 30.06 in SE 1.0 mph 2.0 mph 89% 0.00 in
21:13 78.3 °F 74.8 °F 30.07 in SE 2.0 mph 2.0 mph 89% 0.00 in
21:18 78.1 °F 74.9 °F 30.07 in SE 1.0 mph 1.0 mph 90% 0.00 in
21:23 77.8 °F 74.6 °F 30.07 in SSE 1.0 mph 1.0 mph 90% 0.00 in
21:28 77.6 °F 74.8 °F 30.07 in SE 2.0 mph 2.0 mph 91% 0.00 in
21:33 77.4 °F 74.6 °F 30.07 in SE 2.0 mph 4.0 mph 91% 0.00 in
21:38 77.2 °F 74.4 °F 30.07 in SE 1.0 mph 3.0 mph 91% 0.00 in
21:43 77.0 °F 74.2 °F 30.07 in SE 2.0 mph 3.0 mph 91% 0.00 in
21:48 76.9 °F 74.1 °F 30.07 in SE 1.0 mph 2.0 mph 91% 0.00 in
21:53 76.7 °F 74.2 °F 30.07 in ESE 2.0 mph 2.0 mph 92% 0.00 in
21:58 76.5 °F 74.0 °F 30.07 in SE 3.0 mph 4.0 mph 92% 0.00 in
22:03 76.4 °F 73.9 °F 30.08 in SE 2.0 mph 3.0 mph 92% 0.00 in
22:08 76.4 °F 73.9 °F 30.08 in SE 2.0 mph 3.0 mph 92% 0.00 in
22:13 76.3 °F 73.8 °F 30.08 in SE 3.0 mph 4.0 mph 92% 0.00 in
22:18 76.3 °F 73.8 °F 30.08 in SE 4.0 mph 4.0 mph 92% 0.00 in
22:23 76.3 °F 73.5 °F 30.08 in SE 3.0 mph 3.0 mph 91% 0.00 in
22:28 76.4 °F 73.6 °F 30.09 in SE 1.0 mph 4.0 mph 91% 0.00 in
22:33 76.4 °F 73.6 °F 30.09 in Calm   1.0 mph 91% 0.00 in
22:38 76.2 °F 73.4 °F 30.09 in Calm     91% 0.00 in
22:44 76.1 °F 73.3 °F 30.09 in Calm     91% 0.00 in
22:49 76.0 °F 73.2 °F 30.09 in ESE 1.0 mph 1.0 mph 91% 0.00 in
22:54 75.9 °F 73.1 °F 30.09 in Calm   1.0 mph 91% 0.00 in
22:59 75.9 °F 73.1 °F 30.10 in Calm   1.0 mph 91% 0.00 in
23:04 75.8 °F 73.0 °F 30.10 in ESE 1.0 mph 2.0 mph 91% 0.00 in
23:09 76.0 °F 73.2 °F 30.10 in SE 3.0 mph 3.0 mph 91% 0.00 in
23:14 76.0 °F 73.2 °F 30.10 in ESE 4.0 mph 4.0 mph 91% 0.00 in
23:19 76.1 °F 73.3 °F 30.10 in ESE 3.0 mph 3.0 mph 91% 0.00 in
23:24 76.1 °F 73.3 °F 30.10 in SE 3.0 mph 4.0 mph 91% 0.00 in
23:29 76.3 °F 73.5 °F 30.10 in SSE 2.0 mph 4.0 mph 91% 0.00 in
23:34 76.2 °F 73.4 °F 30.10 in SSE 3.0 mph 3.0 mph 91% 0.00 in
23:39 76.0 °F 73.2 °F 30.10 in SSE 3.0 mph 3.0 mph 91% 0.00 in
23:44 75.8 °F 73.0 °F 30.11 in SSE 3.0 mph 4.0 mph 91% 0.00 in
23:49 75.7 °F 72.9 °F 30.11 in SSE 3.0 mph 4.0 mph 91% 0.00 in
23:54 75.7 °F 72.9 °F 30.10 in SSE 2.0 mph 5.0 mph 91% 0.00 in
23:59 75.8 °F 73.0 °F 30.10 in SSE 3.0 mph 4.0 mph 91% 0.00 in
Compliments of Weather Underground